createdAt,value
2018-05-09T00:01:58.176Z,5.23
2018-05-09T00:04:24.298Z,5.07
2018-05-09T00:06:51.137Z,4.33
2018-05-09T00:09:17.185Z,5.60
2018-05-09T00:11:43.220Z,5.97
2018-05-09T00:14:09.306Z,5.10
2018-05-09T00:16:35.438Z,5.37
2018-05-09T00:19:01.496Z,5.37
2018-05-09T00:21:27.688Z,6.23
2018-05-09T00:23:53.810Z,4.80
2018-05-09T00:26:20.670Z,4.10
2018-05-09T00:28:47.561Z,4.90
2018-05-09T00:31:13.642Z,5.30
2018-05-09T00:33:39.740Z,5.53
2018-05-09T00:36:05.834Z,5.40
2018-05-09T00:38:31.896Z,6.40
2018-05-09T00:40:57.955Z,5.80
2018-05-09T00:43:24.778Z,5.53
2018-05-09T00:45:50.871Z,5.47
2018-05-09T00:48:16.905Z,5.00
2018-05-09T00:50:45.197Z,5.70
2018-05-09T00:53:11.237Z,4.60
2018-05-09T00:55:38.042Z,5.77
2018-05-09T00:58:04.134Z,5.00
2018-05-09T01:00:30.253Z,5.13
2018-05-09T01:02:57.026Z,5.77
2018-05-09T01:05:23.168Z,5.57
2018-05-09T01:07:49.277Z,4.53
2018-05-09T01:10:15.375Z,5.30
2018-05-09T01:12:41.423Z,4.70
2018-05-09T01:15:08.262Z,4.73
2018-05-09T01:17:34.374Z,5.50
2018-05-09T01:20:00.458Z,5.63
2018-05-09T01:22:26.625Z,5.00
2018-05-09T01:24:52.751Z,5.10
2018-05-09T01:27:18.837Z,6.27
2018-05-09T01:29:44.906Z,5.40
2018-05-09T01:32:11.027Z,5.07
2018-05-09T01:34:37.135Z,5.23
2018-05-09T01:37:03.227Z,5.33
2018-05-09T01:39:29.417Z,5.60
2018-05-09T01:41:55.526Z,5.83
2018-05-09T01:44:21.682Z,5.67
2018-05-09T01:46:47.790Z,4.97
2018-05-09T01:49:13.869Z,6.07
2018-05-09T01:51:40.012Z,6.30
2018-05-09T01:54:06.055Z,5.43
2018-05-09T01:56:32.181Z,5.97
2018-05-09T01:58:58.977Z,5.93
2018-05-09T02:01:25.053Z,5.63
2018-05-09T02:03:51.110Z,6.30
2018-05-09T02:06:17.195Z,5.83
2018-05-09T02:08:43.220Z,5.20
2018-05-09T02:11:10.028Z,5.30
2018-05-09T02:13:36.192Z,6.10
2018-05-09T02:16:03.012Z,6.07
2018-05-09T02:18:29.072Z,6.40
2018-05-09T02:20:56.169Z,6.77
2018-05-09T02:23:22.198Z,5.70
2018-05-09T02:25:48.234Z,5.80
2018-05-09T02:28:14.312Z,5.97
2018-05-09T02:30:40.346Z,5.97
2018-05-09T02:33:06.410Z,5.30
2018-05-09T02:35:32.533Z,5.57
2018-05-09T02:37:58.612Z,6.40
2018-05-09T02:40:24.675Z,5.57
2018-05-09T02:42:50.809Z,6.17
2018-05-09T02:45:16.868Z,5.37
2018-05-09T02:47:42.993Z,5.90
2018-05-09T02:50:09.023Z,6.30
2018-05-09T02:52:35.847Z,5.70
2018-05-09T02:55:01.890Z,6.03
2018-05-09T02:57:27.956Z,6.80
2018-05-09T02:59:54.018Z,5.97
2018-05-09T03:02:20.885Z,5.67
2018-05-09T03:04:46.939Z,6.40
2018-05-09T03:07:12.991Z,6.73
2018-05-09T03:09:39.064Z,6.50
2018-05-09T03:12:05.921Z,5.13
2018-05-09T03:14:32.013Z,5.87
2018-05-09T03:16:58.097Z,6.80
2018-05-09T03:19:24.231Z,6.17
2018-05-09T03:21:50.298Z,5.60
2018-05-09T03:24:16.393Z,6.23
2018-05-09T03:26:42.480Z,6.87
2018-05-09T03:29:08.533Z,6.70
2018-05-09T03:31:34.655Z,6.10
2018-05-09T03:34:00.745Z,6.10
2018-05-09T03:36:26.826Z,6.90
2018-05-09T03:38:52.882Z,7.60
2018-05-09T03:41:18.973Z,6.70
2018-05-09T03:43:45.021Z,6.50
2018-05-09T03:46:11.131Z,7.23
2018-05-09T03:48:37.221Z,7.20
2018-05-09T03:51:03.259Z,6.40
2018-05-09T03:53:29.312Z,7.73
2018-05-09T03:55:55.369Z,5.73
2018-05-09T03:58:21.415Z,6.00
2018-05-09T04:00:48.238Z,7.60
2018-05-09T04:03:26.701Z,5.50
2018-05-09T04:06:05.607Z,5.70
2018-05-09T04:08:44.649Z,6.67
2018-05-09T04:11:10.740Z,6.93
2018-05-09T04:13:37.591Z,7.00
2018-05-09T04:16:04.370Z,6.30
2018-05-09T04:18:30.489Z,6.67
2018-05-09T04:20:56.571Z,7.23
2018-05-09T04:23:22.611Z,6.40
2018-05-09T04:25:48.758Z,6.73
2018-05-09T04:28:14.934Z,6.77
2018-05-09T04:30:40.897Z,8.67
2018-05-09T04:33:07.731Z,7.90
2018-05-09T04:35:33.751Z,7.37
2018-05-09T04:38:00.574Z,7.10
2018-05-09T04:40:26.663Z,7.73
2018-05-09T04:42:52.726Z,7.03
2018-05-09T04:45:18.786Z,8.07
2018-05-09T04:47:45.610Z,7.70
2018-05-09T04:50:11.718Z,7.73
2018-05-09T04:52:38.199Z,8.30
2018-05-09T04:55:04.258Z,8.07
2018-05-09T04:57:30.336Z,9.90
2018-05-09T04:59:56.412Z,9.20
2018-05-09T05:02:22.538Z,12.13
2018-05-09T05:04:48.630Z,12.33
2018-05-09T05:07:14.679Z,11.70
2018-05-09T05:09:40.775Z,11.03
2018-05-09T05:12:06.839Z,11.67
2018-05-09T05:14:32.852Z,11.20
2018-05-09T05:16:58.902Z,11.40
2018-05-09T05:19:24.978Z,11.97
2018-05-09T05:21:51.050Z,10.53
2018-05-09T05:24:17.142Z,9.90
2018-05-09T05:26:43.216Z,9.73
2018-05-09T05:29:09.316Z,10.30
2018-05-09T05:31:35.370Z,9.50
2018-05-09T05:34:01.438Z,10.60
2018-05-09T05:36:27.493Z,10.17
2018-05-09T05:38:53.655Z,10.57
2018-05-09T05:41:20.348Z,9.60
2018-05-09T05:43:46.460Z,9.37
2018-05-09T05:46:12.514Z,10.00
2018-05-09T05:48:38.569Z,10.10
2018-05-09T05:51:04.649Z,11.60
2018-05-09T05:53:30.741Z,9.90
2018-05-09T05:55:57.584Z,11.03
2018-05-09T05:58:24.391Z,10.77
2018-05-09T06:00:50.463Z,9.97
2018-05-09T06:03:16.617Z,11.57
2018-05-09T06:05:42.691Z,10.37
2018-05-09T06:08:08.765Z,11.30
2018-05-09T06:10:34.806Z,12.03
2018-05-09T06:13:01.221Z,11.13
2018-05-09T06:15:27.328Z,10.37
2018-05-09T06:17:54.102Z,11.17
2018-05-09T06:20:20.211Z,10.80
2018-05-09T06:22:46.248Z,12.30
2018-05-09T06:25:12.367Z,11.67
2018-05-09T06:27:38.432Z,10.60
2018-05-09T06:30:04.495Z,10.80
2018-05-09T06:32:31.308Z,10.70
2018-05-09T06:34:57.419Z,12.10
2018-05-09T06:37:23.521Z,11.53
2018-05-09T06:39:50.282Z,11.40
2018-05-09T06:42:16.336Z,11.00
2018-05-09T06:44:42.430Z,11.97
2018-05-09T06:47:08.505Z,11.70
2018-05-09T06:49:35.326Z,10.90
2018-05-09T06:52:01.430Z,11.90
2018-05-09T06:54:27.479Z,11.33
2018-05-09T06:56:53.514Z,10.90
2018-05-09T06:59:19.578Z,10.17
2018-05-09T07:01:45.632Z,10.10
2018-05-09T07:04:11.706Z,10.27
2018-05-09T07:06:38.513Z,8.37
2018-05-09T07:09:04.534Z,9.43
2018-05-09T07:11:30.563Z,9.97
2018-05-09T07:13:56.616Z,10.50
2018-05-09T07:16:22.726Z,9.60
2018-05-09T07:18:48.774Z,10.57
2018-05-09T07:21:15.592Z,9.57
2018-05-09T07:23:41.706Z,9.00
2018-05-09T07:26:07.764Z,8.27
2018-05-09T07:28:33.850Z,6.90
2018-05-09T07:30:59.965Z,6.40
2018-05-09T07:33:26.032Z,5.17
2018-05-09T07:35:52.065Z,6.57
2018-05-09T07:38:18.156Z,7.10
2018-05-09T07:40:44.199Z,6.50
2018-05-09T07:43:10.312Z,6.10
2018-05-09T07:45:36.354Z,6.30
2018-05-09T07:48:02.436Z,6.70
2018-05-09T07:50:28.515Z,6.67
2018-05-09T07:52:54.535Z,6.47
2018-05-09T07:55:20.915Z,6.63
2018-05-09T07:57:46.960Z,6.60
2018-05-09T08:00:13.083Z,6.53
2018-05-09T08:02:39.174Z,5.57
2018-05-09T08:05:05.282Z,6.20
2018-05-09T08:07:31.340Z,6.53
2018-05-09T08:09:57.445Z,5.63
2018-05-09T08:12:24.270Z,5.70
2018-05-09T08:14:50.359Z,6.17
2018-05-09T08:17:16.455Z,6.50
2018-05-09T08:19:42.546Z,5.43
2018-05-09T08:22:08.577Z,5.90
2018-05-09T08:24:34.601Z,5.70
2018-05-09T08:27:00.721Z,6.10
2018-05-09T08:29:26.803Z,5.40
2018-05-09T08:31:52.893Z,5.60
2018-05-09T08:34:19.704Z,5.23
2018-05-09T08:36:45.902Z,4.43
2018-05-09T08:39:11.916Z,4.53
2018-05-09T08:41:37.980Z,5.50
2018-05-09T08:44:04.174Z,5.67
2018-05-09T08:46:30.121Z,4.83
2018-05-09T08:48:56.211Z,4.93
2018-05-09T08:51:22.271Z,4.37
2018-05-09T08:53:48.342Z,5.30
2018-05-09T08:56:15.186Z,3.70
2018-05-09T08:58:41.274Z,4.47
2018-05-09T09:01:07.322Z,5.17
2018-05-09T09:03:33.435Z,4.57
2018-05-09T09:05:59.576Z,4.60
2018-05-09T09:08:25.647Z,4.50
2018-05-09T09:10:51.702Z,4.50
2018-05-09T09:13:17.878Z,5.50
2018-05-09T09:15:44.003Z,5.33
2018-05-09T09:18:09.980Z,5.47
2018-05-09T09:20:36.111Z,4.67
2018-05-09T09:23:02.170Z,5.57
2018-05-09T09:25:28.238Z,4.40
2018-05-09T09:27:54.384Z,4.40
2018-05-09T09:30:20.464Z,5.20
2018-05-09T09:32:47.299Z,5.40
2018-05-09T09:35:13.329Z,5.23
2018-05-09T09:37:40.165Z,6.13
2018-05-09T09:40:07.315Z,6.77
2018-05-09T09:42:33.399Z,5.20
2018-05-09T09:44:59.483Z,5.40
2018-05-09T09:47:26.351Z,5.10
2018-05-09T09:49:52.420Z,5.00
2018-05-09T09:52:18.465Z,5.00
2018-05-09T09:54:45.304Z,5.40
2018-05-09T09:57:11.435Z,5.43
2018-05-09T09:59:38.315Z,4.93
2018-05-09T10:02:04.360Z,5.00
2018-05-09T10:04:30.574Z,5.67
2018-05-09T10:06:56.631Z,5.00
2018-05-09T10:09:22.741Z,4.40
2018-05-09T10:11:48.765Z,5.83
2018-05-09T10:14:14.856Z,4.70
2018-05-09T10:16:40.949Z,4.90
2018-05-09T10:19:07.015Z,4.47
2018-05-09T10:21:33.076Z,4.43
2018-05-09T10:23:59.175Z,3.53
2018-05-09T10:26:25.278Z,3.50
2018-05-09T10:28:51.379Z,4.60
2018-05-09T10:31:17.485Z,4.80
2018-05-09T10:33:43.548Z,4.10
2018-05-09T10:36:10.367Z,4.30
2018-05-09T10:38:36.389Z,4.40
2018-05-09T10:41:02.475Z,4.20
2018-05-09T10:43:28.557Z,4.40
2018-05-09T10:45:54.661Z,4.53
2018-05-09T10:48:20.722Z,5.17
2018-05-09T10:50:46.870Z,4.70
2018-05-09T10:53:12.955Z,5.07
2018-05-09T10:55:39.033Z,3.70
2018-05-09T10:58:05.105Z,4.50
2018-05-09T11:00:31.224Z,4.70
2018-05-09T11:02:57.350Z,3.73
2018-05-09T11:05:23.447Z,5.13
2018-05-09T11:07:49.493Z,4.53
2018-05-09T11:10:15.610Z,4.23
2018-05-09T11:12:41.676Z,3.90
2018-05-09T11:15:07.813Z,4.70
2018-05-09T11:17:34.713Z,4.70
2018-05-09T11:20:00.995Z,4.03
2018-05-09T11:22:27.164Z,5.13
2018-05-09T11:24:53.295Z,4.30
2018-05-09T11:27:19.505Z,4.63
2018-05-09T11:29:45.634Z,4.10
2018-05-09T11:32:11.913Z,4.53
2018-05-09T11:34:38.766Z,4.50
2018-05-09T11:37:04.993Z,5.17
2018-05-09T11:39:31.889Z,4.97
2018-05-09T11:41:58.180Z,5.50
2018-05-09T11:44:24.287Z,5.07
2018-05-09T11:46:50.383Z,5.23
2018-05-09T11:49:16.584Z,5.63
2018-05-09T11:51:42.805Z,6.67
2018-05-09T11:54:09.023Z,5.67
2018-05-09T11:56:35.195Z,5.30
2018-05-09T11:59:01.303Z,4.60
2018-05-09T12:01:27.448Z,4.90
2018-05-09T12:03:53.586Z,5.70
2018-05-09T12:06:19.732Z,5.17
2018-05-09T12:08:46.637Z,5.73
2018-05-09T12:11:12.706Z,5.90
2018-05-09T12:13:38.891Z,5.40
2018-05-09T12:16:05.650Z,5.43
2018-05-09T12:18:32.382Z,5.67
2018-05-09T12:20:59.149Z,5.83
2018-05-09T12:23:25.842Z,5.27
2018-05-09T12:25:51.843Z,5.50
2018-05-09T12:28:18.532Z,5.80
2018-05-09T12:30:44.523Z,5.57
2018-05-09T12:33:11.267Z,5.87
2018-05-09T12:35:37.221Z,5.50
2018-05-09T12:38:03.951Z,5.50
2018-05-09T12:40:29.926Z,4.90
2018-05-09T12:42:55.903Z,5.40
2018-05-09T12:45:21.854Z,6.23
2018-05-09T12:47:47.816Z,6.00
2018-05-09T12:50:13.798Z,6.20
2018-05-09T12:52:39.864Z,6.43
2018-05-09T12:55:05.846Z,6.47
2018-05-09T12:57:31.810Z,4.93
2018-05-09T12:59:57.827Z,4.83
2018-05-09T13:02:23.854Z,5.60
2018-05-09T13:04:49.822Z,5.53
2018-05-09T13:07:15.831Z,6.20
2018-05-09T13:09:41.810Z,5.60
2018-05-09T13:12:08.611Z,6.70
2018-05-09T13:14:35.306Z,5.87
2018-05-09T13:17:01.274Z,5.90
2018-05-09T13:19:27.999Z,6.10
2018-05-09T13:21:53.979Z,6.73
2018-05-09T13:24:19.984Z,5.83
2018-05-09T13:26:45.957Z,7.90
2018-05-09T13:29:12.005Z,6.83
2018-05-09T13:31:38.061Z,6.60
2018-05-09T13:34:04.010Z,7.27
2018-05-09T13:36:30.095Z,7.80
2018-05-09T13:38:56.044Z,7.70
2018-05-09T13:41:22.044Z,7.77
2018-05-09T13:43:48.057Z,7.00
2018-05-09T13:46:14.026Z,6.80
2018-05-09T13:48:40.026Z,7.50
2018-05-09T13:51:06.020Z,8.50
2018-05-09T13:53:32.176Z,8.13
2018-05-09T13:55:58.139Z,7.83
2018-05-09T13:58:24.139Z,8.20
2018-05-09T14:00:50.107Z,8.23
2018-05-09T14:03:16.105Z,8.37
2018-05-09T14:05:42.108Z,8.03
2018-05-09T14:08:08.083Z,7.57
2018-05-09T14:10:34.079Z,7.27
2018-05-09T14:13:00.023Z,6.67
2018-05-09T14:15:26.783Z,6.73
2018-05-09T14:17:53.512Z,7.03
2018-05-09T14:20:19.458Z,7.17
2018-05-09T14:22:45.434Z,7.00
2018-05-09T14:25:11.418Z,7.50
2018-05-09T14:27:37.479Z,7.17
2018-05-09T14:30:04.183Z,6.67
2018-05-09T14:32:30.197Z,7.70
2018-05-09T14:34:56.198Z,8.20
2018-05-09T14:37:22.928Z,7.97
2018-05-09T14:39:48.936Z,7.60
2018-05-09T14:42:14.930Z,7.47
2018-05-09T14:44:41.625Z,7.93
2018-05-09T14:47:07.618Z,9.10
2018-05-09T14:49:33.622Z,8.50
2018-05-09T14:51:59.634Z,9.30
2018-05-09T14:54:25.651Z,8.53
2018-05-09T14:56:52.350Z,8.30
2018-05-09T14:59:18.321Z,8.67
2018-05-09T15:01:45.023Z,9.07
2018-05-09T15:04:11.038Z,8.50
2018-05-09T15:06:37.007Z,8.77
2018-05-09T15:09:03.002Z,8.40
2018-05-09T15:11:29.760Z,7.00
2018-05-09T15:13:55.784Z,7.30
2018-05-09T15:16:22.510Z,7.40
2018-05-09T15:18:48.472Z,8.27
2018-05-09T15:21:14.462Z,7.57
2018-05-09T15:23:40.455Z,7.73
2018-05-09T15:26:06.452Z,7.40
2018-05-09T15:28:32.409Z,6.43
2018-05-09T15:30:59.183Z,6.80
2018-05-09T15:33:25.163Z,7.57
2018-05-09T15:35:51.197Z,7.90
2018-05-09T15:38:17.170Z,6.73
2018-05-09T15:40:43.919Z,7.50
2018-05-09T15:43:10.607Z,7.23
2018-05-09T15:45:36.578Z,7.30
2018-05-09T15:48:02.551Z,7.23
2018-05-09T15:50:29.252Z,6.80
2018-05-09T15:52:55.230Z,6.37
2018-05-09T15:55:21.957Z,7.60
2018-05-09T15:57:47.947Z,7.50
2018-05-09T16:00:13.910Z,7.77
2018-05-09T16:02:39.928Z,7.97
2018-05-09T16:05:05.917Z,7.30
2018-05-09T16:07:31.859Z,6.83
2018-05-09T16:09:58.635Z,7.33
2018-05-09T16:12:24.617Z,6.50
2018-05-09T16:14:50.581Z,6.30
2018-05-09T16:17:17.310Z,6.43
2018-05-09T16:19:43.262Z,6.53
2018-05-09T16:22:09.261Z,6.27
2018-05-09T16:24:35.238Z,6.50
2018-05-09T16:27:01.218Z,6.37
2018-05-09T16:29:27.200Z,7.10
2018-05-09T16:31:53.196Z,6.37
2018-05-09T16:34:19.155Z,6.20
2018-05-09T16:36:45.150Z,7.07
2018-05-09T16:39:11.143Z,6.93
2018-05-09T16:41:37.130Z,6.03
2018-05-09T16:44:03.107Z,6.67
2018-05-09T16:46:29.166Z,6.50
2018-05-09T16:48:55.867Z,6.40
2018-05-09T16:51:21.845Z,7.13
2018-05-09T16:53:47.798Z,5.97
2018-05-09T16:56:13.783Z,5.90
2018-05-09T16:58:39.782Z,5.73
2018-05-09T17:01:06.513Z,6.10
2018-05-09T17:03:32.468Z,6.87
2018-05-09T17:05:59.198Z,7.30
2018-05-09T17:08:25.193Z,7.47
2018-05-09T17:10:51.150Z,6.60
2018-05-09T17:13:17.136Z,6.70
2018-05-09T17:15:43.827Z,7.63
2018-05-09T17:18:09.790Z,6.60
2018-05-09T17:20:35.771Z,7.40
2018-05-09T17:23:01.796Z,6.53
2018-05-09T17:25:27.804Z,6.60
2018-05-09T17:27:53.804Z,5.90
2018-05-09T17:30:19.765Z,6.90
2018-05-09T17:32:45.759Z,7.37
2018-05-09T17:35:11.710Z,6.80
2018-05-09T17:37:37.732Z,7.60
2018-05-09T17:40:03.728Z,6.93
2018-05-09T17:42:29.809Z,8.37
2018-05-09T17:44:55.721Z,8.43
2018-05-09T17:47:21.677Z,7.70
2018-05-09T17:49:47.723Z,7.10
2018-05-09T17:52:13.721Z,7.50
2018-05-09T17:54:40.423Z,7.00
2018-05-09T17:57:06.409Z,6.97
2018-05-09T17:59:35.411Z,7.13
2018-05-09T18:02:02.133Z,7.00
2018-05-09T18:04:28.143Z,7.10
2018-05-09T18:06:54.124Z,7.53
2018-05-09T18:09:20.126Z,7.20
2018-05-09T18:11:46.114Z,8.13
2018-05-09T18:14:12.815Z,8.50
2018-05-09T18:16:38.775Z,7.87
2018-05-09T18:19:04.746Z,9.57
2018-05-09T18:21:31.452Z,9.07
2018-05-09T18:23:57.454Z,7.40
2018-05-09T18:26:23.439Z,9.27
2018-05-09T18:28:49.422Z,8.63
2018-05-09T18:31:15.389Z,8.17
2018-05-09T18:33:41.414Z,8.03
2018-05-09T18:36:08.752Z,8.83
2018-05-09T18:38:35.512Z,7.83
2018-05-09T18:41:01.483Z,9.00
2018-05-09T18:43:27.483Z,9.00
2018-05-09T18:45:53.431Z,9.00
2018-05-09T18:48:19.484Z,8.40
2018-05-09T18:50:45.443Z,9.17
2018-05-09T18:53:11.470Z,8.90
2018-05-09T18:55:37.418Z,10.00
2018-05-09T18:58:03.375Z,9.60
2018-05-09T19:00:30.078Z,9.10
2018-05-09T19:02:56.032Z,9.13
2018-05-09T19:05:22.015Z,9.10
2018-05-09T19:07:48.717Z,9.07
2018-05-09T19:10:14.703Z,11.60
2018-05-09T19:12:41.431Z,9.80
2018-05-09T19:15:07.398Z,8.47
2018-05-09T19:17:33.372Z,9.03
2018-05-09T19:19:59.319Z,8.80
2018-05-09T19:22:25.317Z,9.00
2018-05-09T19:24:51.283Z,8.90
2018-05-09T19:27:17.258Z,9.37
2018-05-09T19:29:43.938Z,10.23
2018-05-09T19:32:09.898Z,9.73
2018-05-09T19:34:35.882Z,10.50
2018-05-09T19:37:02.573Z,9.23
2018-05-09T19:39:28.555Z,8.47
2018-05-09T19:41:54.548Z,9.70
2018-05-09T19:44:20.502Z,8.17
2018-05-09T19:46:46.484Z,8.53
2018-05-09T19:49:13.232Z,9.60
2018-05-09T19:51:39.937Z,10.07
2018-05-09T19:54:20.899Z,8.93
2018-05-09T19:56:46.847Z,10.60
2018-05-09T19:59:12.838Z,9.43
2018-05-09T20:01:38.786Z,9.40
2018-05-09T20:04:05.518Z,9.03
2018-05-09T20:06:31.473Z,8.63
2018-05-09T20:08:58.168Z,9.23
2018-05-09T20:11:24.138Z,8.87
2018-05-09T20:13:50.100Z,8.50
2018-05-09T20:16:16.837Z,8.70
2018-05-09T20:18:43.554Z,9.27
2018-05-09T20:21:09.571Z,8.90
2018-05-09T20:23:35.624Z,9.03
2018-05-09T20:26:02.267Z,9.33
2018-05-09T20:28:28.235Z,8.53
2018-05-09T20:31:00.298Z,8.90
2018-05-09T20:33:27.403Z,9.50
2018-05-09T20:35:54.090Z,10.33
2018-05-09T20:38:20.074Z,9.27
2018-05-09T20:40:46.031Z,9.03
2018-05-09T20:43:12.746Z,8.57
2018-05-09T20:45:38.731Z,9.50
2018-05-09T20:48:04.698Z,10.17
2018-05-09T20:50:30.694Z,10.50
2018-05-09T20:52:57.366Z,8.77
2018-05-09T20:55:26.343Z,9.90
2018-05-09T20:57:53.030Z,10.27
2018-05-09T21:00:19.048Z,9.20
2018-05-09T21:02:44.994Z,8.80
2018-05-09T21:05:10.972Z,8.60
2018-05-09T21:07:49.252Z,9.33
2018-05-09T21:10:15.246Z,10.13
2018-05-09T21:12:41.202Z,9.30
2018-05-09T21:15:07.895Z,9.30
2018-05-09T21:17:33.902Z,9.57
2018-05-09T21:20:06.914Z,10.10
2018-05-09T21:22:32.806Z,9.70
2018-05-09T21:24:58.782Z,10.50
2018-05-09T21:27:24.779Z,10.60
2018-05-09T21:29:50.726Z,11.60
2018-05-09T21:32:16.680Z,9.90
2018-05-09T21:34:42.702Z,10.63
2018-05-09T21:37:09.403Z,10.10
2018-05-09T21:39:35.396Z,10.90
2018-05-09T21:42:02.078Z,10.10
2018-05-09T21:44:28.065Z,11.00
2018-05-09T21:46:54.060Z,10.53
2018-05-09T21:49:20.051Z,9.37
2018-05-09T21:51:46.010Z,8.83
2018-05-09T21:54:12.003Z,9.63
2018-05-09T21:56:37.982Z,9.23
2018-05-09T21:59:03.975Z,9.77
2018-05-09T22:01:30.031Z,9.80
2018-05-09T22:03:56.731Z,8.80
2018-05-09T22:06:22.706Z,9.37
2018-05-09T22:08:48.690Z,8.67
2018-05-09T22:11:14.672Z,9.67
2018-05-09T22:13:47.581Z,8.13
2018-05-09T22:16:13.559Z,8.80
2018-05-09T22:18:39.510Z,8.50
2018-05-09T22:21:05.506Z,7.87
2018-05-09T22:23:31.582Z,8.90
2018-05-09T22:25:57.458Z,8.10
2018-05-09T22:28:24.918Z,7.37
2018-05-09T22:30:50.867Z,8.80
2018-05-09T22:33:16.858Z,8.50
2018-05-09T22:35:42.863Z,7.33
2018-05-09T22:38:09.552Z,8.00
2018-05-09T22:40:35.552Z,8.50
2018-05-09T22:43:02.265Z,8.27
2018-05-09T22:45:28.251Z,8.67
2018-05-09T22:47:54.243Z,8.50
2018-05-09T22:50:20.248Z,8.90
2018-05-09T22:52:46.211Z,8.57
2018-05-09T22:55:12.175Z,8.80
2018-05-09T22:57:38.914Z,8.70
2018-05-09T23:00:04.874Z,8.40
2018-05-09T23:02:31.703Z,9.00
2018-05-09T23:04:57.709Z,7.90
2018-05-09T23:07:24.352Z,8.97
2018-05-09T23:09:50.350Z,8.80
2018-05-09T23:12:17.035Z,9.67
2018-05-09T23:14:43.023Z,8.60
2018-05-09T23:17:09.110Z,9.00
2018-05-09T23:19:35.051Z,8.97
2018-05-09T23:22:01.039Z,9.47
2018-05-09T23:24:27.739Z,9.50
2018-05-09T23:26:53.725Z,10.20
2018-05-09T23:29:20.423Z,9.90
2018-05-09T23:31:46.410Z,10.30
2018-05-09T23:34:12.358Z,10.23
2018-05-09T23:36:39.120Z,10.60
2018-05-09T23:39:05.808Z,10.40
2018-05-09T23:41:31.775Z,8.97
2018-05-09T23:43:57.767Z,9.80
2018-05-09T23:46:23.719Z,9.63
2018-05-09T23:48:49.729Z,9.53
2018-05-09T23:51:15.710Z,9.87
2018-05-09T23:53:41.678Z,10.30
2018-05-09T23:56:08.403Z,10.20
2018-05-09T23:58:34.385Z,9.47
